Time;durP1;ratioP1;P1;durP2;ratioP2;P2;SDS_P1;SDS_P2;PMS_P1;PMS_P2;Temp;Humidity;BMP_temperature;BMP_pressure;BME280_temperature;BME280_humidity;BME280_pressure;Samples;Min_cycle;Max_cycle;Signal;HPM_P1;HPM_P2
2021/12/09 06:00:27;;;;;;;7.70;3.80;;;6.20;97.20;;;;;;1716117;28;20533;-80
2021/12/09 06:01:18;;;;;;;5.68;3.50;;;6.10;97.20;;;;;;1716161;28;20668;-80
2021/12/09 06:02:11;;;;;;;5.37;3.83;;;6.10;97.20;;;;;;1715920;28;20605;-80
2021/12/09 06:03:02;;;;;;;5.68;3.38;;;6.10;97.20;;;;;;1715931;28;20241;-80
2021/12/09 06:03:54;;;;;;;5.63;3.60;;;6.10;97.20;;;;;;1715535;28;20209;-80
2021/12/09 06:04:45;;;;;;;5.60;3.95;;;6.00;97.20;;;;;;1715852;28;20214;-80
2021/12/09 06:05:37;;;;;;;6.07;4.00;;;6.00;97.20;;;;;;1715623;28;20661;-80
2021/12/09 06:06:29;;;;;;;8.65;4.60;;;6.00;97.20;;;;;;1720890;28;20225;-80
2021/12/09 06:07:20;;;;;;;8.23;4.20;;;6.00;97.20;;;;;;1722553;28;20205;-80
2021/12/09 06:08:11;;;;;;;7.78;4.00;;;6.00;97.20;;;;;;1722888;28;20612;-80
2021/12/09 06:09:05;;;;;;;6.18;4.32;;;6.00;97.20;;;;;;1722874;28;20209;-80
2021/12/09 06:09:56;;;;;;;5.95;4.50;;;6.00;97.20;;;;;;1722615;28;20240;-80
2021/12/09 06:10:48;;;;;;;6.30;3.90;;;6.00;97.20;;;;;;1722719;28;20224;-80
2021/12/09 06:11:41;;;;;;;6.05;5.00;;;5.90;97.20;;;;;;1722561;28;20457;-80
2021/12/09 06:12:34;;;;;;;7.13;4.60;;;5.90;97.20;;;;;;1722406;28;20685;-80
2021/12/09 06:13:26;;;;;;;5.95;4.72;;;5.90;97.20;;;;;;1722387;28;20209;-80
2021/12/09 06:14:18;;;;;;;6.53;5.15;;;5.90;97.20;;;;;;1722673;28;20205;-80
2021/12/09 06:15:10;;;;;;;6.55;5.22;;;5.90;97.20;;;;;;1722569;28;20213;-80
2021/12/09 06:16:03;;;;;;;7.47;4.50;;;5.90;97.20;;;;;;1722718;28;20197;-80
2021/12/09 06:16:54;;;;;;;5.07;4.10;;;5.90;97.20;;;;;;1722455;28;20239;-80
2021/12/09 06:17:46;;;;;;;6.30;4.13;;;5.90;97.20;;;;;;1722219;28;20765;-80
2021/12/09 06:18:37;;;;;;;5.57;4.00;;;5.90;97.20;;;;;;1722169;28;20483;-80
2021/12/09 06:19:28;;;;;;;6.03;4.43;;;5.90;97.20;;;;;;1721787;28;20197;-80
2021/12/09 06:20:19;;;;;;;5.38;3.97;;;5.90;97.20;;;;;;1722102;28;20236;-80
2021/12/09 06:21:11;;;;;;;7.30;4.00;;;5.90;97.20;;;;;;1721920;28;20217;-80
2021/12/09 06:22:02;;;;;;;6.28;4.50;;;5.90;97.20;;;;;;1721511;28;20728;-80
2021/12/09 06:22:54;;;;;;;5.63;4.53;;;5.90;97.20;;;;;;1715237;28;20204;-80
2021/12/09 06:23:45;;;;;;;4.80;3.88;;;5.90;97.20;;;;;;1715057;28;20213;-80
2021/12/09 06:24:37;;;;;;;5.60;4.37;;;5.90;97.20;;;;;;1715101;28;20320;-80
2021/12/09 06:25:28;;;;;;;4.60;3.92;;;5.90;97.20;;;;;;1714962;28;20452;-80
2021/12/09 06:26:21;;;;;;;8.43;4.33;;;5.90;97.20;;;;;;1715239;28;20234;-80
2021/12/09 06:27:13;;;;;;;6.93;4.10;;;6.00;97.20;;;;;;1715112;28;20445;-80
2021/12/09 06:28:04;;;;;;;4.90;3.70;;;6.00;97.20;;;;;;1715076;28;20673;-80
2021/12/09 06:28:55;;;;;;;7.40;4.15;;;6.00;97.20;;;;;;1715342;28;20210;-80
2021/12/09 06:29:47;;;;;;;8.23;4.03;;;6.00;97.20;;;;;;1715172;28;20205;-80
2021/12/09 06:30:38;;;;;;;8.25;3.50;;;6.00;97.20;;;;;;1719297;28;20469;-80
2021/12/09 06:31:31;;;;;;;5.37;3.63;;;6.00;97.20;;;;;;1722011;28;20204;-80
2021/12/09 06:32:22;;;;;;;5.30;3.60;;;6.00;97.20;;;;;;1721895;28;20955;-80
2021/12/09 06:33:14;;;;;;;8.30;5.45;;;6.00;97.20;;;;;;1721843;28;20208;-80
2021/12/09 06:34:05;;;;;;;9.10;3.80;;;6.00;97.20;;;;;;1721512;28;20242;-81
2021/12/09 06:34:57;;;;;;;5.07;3.77;;;6.10;97.20;;;;;;1721870;28;20205;-80
2021/12/09 06:35:48;;;;;;;6.40;3.78;;;6.10;97.20;;;;;;1721829;28;20456;-80
2021/12/09 06:36:40;;;;;;;7.23;3.90;;;6.10;97.20;;;;;;1721795;28;20207;-80
2021/12/09 06:37:31;;;;;;;6.65;3.80;;;6.10;97.20;;;;;;1721992;28;20231;-80
2021/12/09 06:38:23;;;;;;;7.50;4.10;;;6.10;97.20;;;;;;1720701;28;20198;-80
2021/12/09 06:39:17;;;;;;;8.18;4.72;;;6.10;97.20;;;;;;1716016;28;20209;-80
2021/12/09 06:40:11;;;;;;;6.85;3.80;;;6.20;97.20;;;;;;1716251;28;20201;-80
2021/12/09 06:41:02;;;;;;;7.53;4.20;;;6.20;97.20;;;;;;1716466;28;20206;-80
2021/12/09 06:41:54;;;;;;;6.40;3.83;;;6.20;97.20;;;;;;1716394;28;20229;-80
2021/12/09 06:42:46;;;;;;;3.80;3.45;;;6.20;97.20;;;;;;1716618;28;20568;-80
2021/12/09 06:43:40;;;;;;;5.70;3.35;;;6.30;97.20;;;;;;1716757;28;20205;-80
2021/12/09 06:44:31;;;;;;;3.70;3.35;;;6.30;97.20;;;;;;1717536;28;20225;-80
2021/12/09 06:45:24;;;;;;;4.83;3.53;;;6.30;97.20;;;;;;1718028;28;20269;-79
2021/12/09 06:46:14;;;;;;;4.10;3.70;;;6.30;97.20;;;;;;1720160;28;20202;-80
2021/12/09 06:47:08;;;;;;;5.60;4.33;;;6.30;97.20;;;;;;1721810;28;20601;-80
2021/12/09 06:47:59;;;;;;;6.57;3.40;;;6.30;97.20;;;;;;1720849;28;20206;-80
2021/12/09 06:48:51;;;;;;;6.72;3.47;;;6.30;97.20;;;;;;1721038;28;20202;-80
2021/12/09 06:49:43;;;;;;;7.50;3.22;;;6.20;97.20;;;;;;1721306;28;20213;-80
2021/12/09 06:50:36;;;;;;;4.72;3.08;;;6.20;97.20;;;;;;1721274;28;20218;-80
2021/12/09 06:51:26;;;;;;;6.63;3.38;;;6.20;97.20;;;;;;1721243;28;20229;-80
2021/12/09 06:52:19;;;;;;;6.70;3.50;;;6.20;97.20;;;;;;1721273;28;20201;-80
2021/12/09 06:53:11;;;;;;;5.63;3.92;;;6.10;97.20;;;;;;1720575;28;20298;-80
2021/12/09 06:54:03;;;;;;;8.02;3.63;;;6.10;97.20;;;;;;1716525;28;20197;-80
2021/12/09 06:54:53;;;;;;;6.22;3.30;;;6.10;97.20;;;;;;1720540;28;20197;-80
2021/12/09 06:55:45;;;;;;;6.30;3.50;;;6.10;97.20;;;;;;1721919;28;20216;-80
2021/12/09 06:56:36;;;;;;;5.38;3.35;;;6.10;97.20;;;;;;1721967;28;20209;-80
2021/12/09 06:57:29;;;;;;;6.03;3.83;;;6.00;97.20;;;;;;1721885;28;20265;-80
2021/12/09 06:58:21;;;;;;;5.50;3.25;;;6.00;97.20;;;;;;1724767;28;20304;-80
2021/12/09 06:59:13;;;;;;;6.05;2.97;;;6.00;97.20;;;;;;1728194;28;20256;-80
2021/12/09 07:00:05;;;;;;;4.93;3.47;;;6.10;97.20;;;;;;1728992;28;20184;-80
2021/12/09 07:00:57;;;;;;;6.63;3.25;;;6.10;97.20;;;;;;1728665;28;20216;-80
2021/12/09 07:01:48;;;;;;;7.07;3.38;;;6.10;97.20;;;;;;1728736;28;20209;-80
2021/12/09 07:02:43;;;;;;;3.93;3.37;;;6.10;97.20;;;;;;1728418;28;20217;-80
2021/12/09 07:03:34;;;;;;;5.07;3.63;;;6.10;97.20;;;;;;1728123;28;20212;-80
2021/12/09 07:04:26;;;;;;;3.50;3.08;;;6.10;97.20;;;;;;1728305;28;20216;-80
2021/12/09 07:05:19;;;;;;;6.00;3.30;;;6.10;97.20;;;;;;1728429;28;20205;-80
2021/12/09 07:06:11;;;;;;;7.40;3.50;;;6.00;97.20;;;;;;1728532;28;20219;-80
2021/12/09 07:07:03;;;;;;;4.55;3.95;;;6.00;97.20;;;;;;1728793;28;20231;-80
2021/12/09 07:07:54;;;;;;;5.50;3.40;;;6.00;97.20;;;;;;1728517;28;20205;-80
2021/12/09 07:08:48;;;;;;;7.45;3.40;;;6.00;97.20;;;;;;1728685;28;20217;-80
2021/12/09 07:09:40;;;;;;;4.78;3.40;;;6.00;97.20;;;;;;1728344;28;20205;-80
2021/12/09 07:10:33;;;;;;;5.75;3.40;;;6.10;97.20;;;;;;1724088;28;20249;-79
2021/12/09 07:11:23;;;;;;;7.20;3.60;;;6.10;97.20;;;;;;1720055;28;20217;-80
2021/12/09 07:12:15;;;;;;;5.67;3.70;;;6.10;97.20;;;;;;1719958;28;20293;-79
2021/12/09 07:13:06;;;;;;;5.65;3.55;;;6.10;97.20;;;;;;1719189;28;20213;-80
2021/12/09 07:13:58;;;;;;;4.93;2.90;;;6.10;97.20;;;;;;1716100;28;20206;-80
2021/12/09 07:14:49;;;;;;;6.88;3.65;;;6.10;97.20;;;;;;1715751;28;20441;-80
2021/12/09 07:15:41;;;;;;;9.33;3.93;;;6.00;97.20;;;;;;1716206;28;20248;-80
2021/12/09 07:16:31;;;;;;;4.50;3.40;;;6.00;97.20;;;;;;1720932;28;20233;-80
2021/12/09 07:17:23;;;;;;;5.90;3.60;;;6.00;97.20;;;;;;1721819;28;20212;-80
2021/12/09 07:18:15;;;;;;;7.28;3.58;;;6.00;97.20;;;;;;1722031;28;20240;-80
2021/12/09 07:19:07;;;;;;;4.13;3.00;;;6.00;97.20;;;;;;1721691;28;20273;-80
2021/12/09 07:19:58;;;;;;;6.53;3.53;;;6.00;97.20;;;;;;1721915;28;20206;-80
2021/12/09 07:20:50;;;;;;;4.63;3.67;;;6.00;97.20;;;;;;1720767;28;20269;-80
2021/12/09 07:21:40;;;;;;;5.40;3.03;;;6.00;97.20;;;;;;1716405;28;20210;-80
2021/12/09 07:22:32;;;;;;;4.53;3.17;;;6.00;97.20;;;;;;1716347;28;20295;-80
2021/12/09 07:23:23;;;;;;;4.20;3.13;;;6.00;97.20;;;;;;1715862;28;20456;-80
2021/12/09 07:24:15;;;;;;;3.40;3.00;;;6.00;97.20;;;;;;1716172;28;20198;-80
2021/12/09 07:25:07;;;;;;;5.93;3.80;;;6.00;97.20;;;;;;1715615;28;20441;-80
2021/12/09 07:25:59;;;;;;;4.03;3.42;;;6.10;97.20;;;;;;1715365;28;20625;-80
2021/12/09 07:26:49;;;;;;;8.27;3.10;;;6.10;97.20;;;;;;1716829;28;20581;-80
2021/12/09 07:27:41;;;;;;;4.87;3.23;;;6.10;97.20;;;;;;1715835;28;20562;-80
2021/12/09 07:28:32;;;;;;;5.70;3.90;;;6.10;97.20;;;;;;1715818;28;20213;-80
2021/12/09 07:29:24;;;;;;;5.50;3.63;;;6.10;97.20;;;;;;1716609;28;20300;-80
2021/12/09 07:30:17;;;;;;;7.43;4.20;;;6.10;97.20;;;;;;1715075;28;20560;-80
2021/12/09 07:31:08;;;;;;;10.18;4.38;;;6.10;97.20;;;;;;1715659;28;20218;-80
2021/12/09 07:32:00;;;;;;;6.03;4.03;;;6.10;97.20;;;;;;1716677;28;20257;-80
2021/12/09 07:32:51;;;;;;;6.28;4.60;;;6.10;97.20;;;;;;1721198;28;20186;-80
2021/12/09 07:33:44;;;;;;;6.72;3.90;;;6.20;97.20;;;;;;1714922;28;20657;-81
2021/12/09 07:34:36;;;;;;;4.20;3.80;;;6.20;97.20;;;;;;1713943;28;20201;-81
2021/12/09 07:35:30;;;;;;;5.25;3.72;;;6.20;97.20;;;;;;1712813;28;20252;-80
2021/12/09 07:36:21;;;;;;;4.18;3.30;;;6.20;97.20;;;;;;1715137;28;20206;-80
2021/12/09 07:37:13;;;;;;;4.57;3.60;;;6.20;97.20;;;;;;1715132;28;20197;-80
2021/12/09 07:38:04;;;;;;;6.38;2.90;;;6.20;97.20;;;;;;1715036;28;20197;-81
2021/12/09 07:38:57;;;;;;;5.50;3.15;;;6.20;97.20;;;;;;1715722;28;20330;-81
2021/12/09 07:39:48;;;;;;;6.28;3.25;;;6.20;97.20;;;;;;1715097;28;20240;-81
2021/12/09 07:40:40;;;;;;;4.55;2.30;;;6.10;97.20;;;;;;1714347;28;20218;-81
2021/12/09 07:41:31;;;;;;;5.25;2.70;;;6.10;97.20;;;;;;1711492;28;20206;-81
2021/12/09 07:42:23;;;;;;;6.90;3.50;;;6.10;97.20;;;;;;1710287;29;20210;-81
2021/12/09 07:43:14;;;;;;;5.55;3.03;;;6.00;97.20;;;;;;1708891;29;20206;-80
2021/12/09 07:44:06;;;;;;;6.32;2.83;;;6.00;97.20;;;;;;1708215;29;20206;-81
2021/12/09 07:44:57;;;;;;;5.72;3.30;;;6.00;97.20;;;;;;1708641;29;20222;-81
2021/12/09 07:45:49;;;;;;;5.03;2.67;;;6.00;97.20;;;;;;1708504;29;20674;-81
2021/12/09 07:46:42;;;;;;;6.15;3.13;;;5.90;97.20;;;;;;1708420;29;20233;-80
2021/12/09 07:47:34;;;;;;;6.30;3.03;;;5.90;97.20;;;;;;1708525;29;20203;-81
2021/12/09 07:48:25;;;;;;;5.72;3.40;;;5.90;97.20;;;;;;1708537;29;20620;-81
2021/12/09 07:49:19;;;;;;;4.80;3.17;;;5.90;97.20;;;;;;1708472;29;20570;-80
2021/12/09 07:50:14;;;;;;;4.85;3.25;;;5.90;97.20;;;;;;1708369;29;20462;-81
2021/12/09 07:51:05;;;;;;;10.25;3.47;;;5.90;97.20;;;;;;1714260;28;20688;-81
2021/12/09 07:51:56;;;;;;;7.18;3.30;;;5.90;97.20;;;;;;1715139;28;20209;-80
2021/12/09 07:52:51;;;;;;;4.23;3.23;;;5.90;97.20;;;;;;1718467;28;20200;-81
2021/12/09 07:53:42;;;;;;;6.03;3.45;;;5.90;97.20;;;;;;1721783;28;20452;-81
2021/12/09 07:54:34;;;;;;;5.80;3.40;;;5.90;97.20;;;;;;1722147;28;20207;-81
2021/12/09 07:55:26;;;;;;;7.95;3.55;;;5.80;97.20;;;;;;1723138;28;20563;-81
2021/12/09 07:56:17;;;;;;;4.25;3.30;;;5.80;97.20;;;;;;1722377;28;20284;-81
2021/12/09 07:57:08;;;;;;;4.60;3.20;;;5.80;97.20;;;;;;1722444;28;20224;-81
2021/12/09 07:58:00;;;;;;;5.37;3.17;;;5.80;97.20;;;;;;1722815;28;20196;-83
2021/12/09 07:58:51;;;;;;;5.22;3.50;;;5.70;97.20;;;;;;1723266;28;20245;-82
2021/12/09 07:59:43;;;;;;;5.83;3.37;;;5.70;97.20;;;;;;1722601;28;20196;-83
2021/12/09 08:00:34;;;;;;;5.50;3.13;;;5.70;97.20;;;;;;1720350;28;20225;-82
2021/12/09 08:01:26;;;;;;;4.95;3.85;;;5.70;97.20;;;;;;1722044;28;20200;-83
2021/12/09 08:02:17;;;;;;;6.72;3.95;;;5.60;97.20;;;;;;1719332;28;20699;-80
2021/12/09 08:03:09;;;;;;;5.85;3.65;;;5.60;97.20;;;;;;1715070;28;20256;-81
2021/12/09 08:04:01;;;;;;;5.60;4.10;;;5.60;97.20;;;;;;1712440;28;20235;-81
2021/12/09 08:04:54;;;;;;;5.72;3.70;;;5.60;97.20;;;;;;1715009;28;20233;-80
2021/12/09 08:05:47;;;;;;;6.47;3.78;;;5.60;97.20;;;;;;1714184;28;20233;-80
2021/12/09 08:06:39;;;;;;;4.80;3.53;;;5.60;97.20;;;;;;1715721;28;20198;-81
2021/12/09 08:07:30;;;;;;;5.85;4.00;;;5.60;97.20;;;;;;1715958;28;20252;-80
2021/12/09 08:08:22;;;;;;;5.30;4.17;;;5.60;97.20;;;;;;1715852;28;20186;-83
2021/12/09 08:09:14;;;;;;;6.00;4.10;;;5.60;97.20;;;;;;1715450;28;20205;-82
2021/12/09 08:10:05;;;;;;;4.75;3.72;;;5.50;97.20;;;;;;1716246;28;20264;-82
2021/12/09 08:10:57;;;;;;;6.28;4.25;;;5.50;97.20;;;;;;1713523;28;20285;-82
2021/12/09 08:11:47;;;;;;;7.35;4.22;;;5.50;97.20;;;;;;1714971;28;20237;-81
2021/12/09 08:12:40;;;;;;;5.17;3.90;;;5.60;97.20;;;;;;1714420;28;20204;-82
2021/12/09 08:13:31;;;;;;;5.35;3.83;;;5.60;97.20;;;;;;1715022;28;20405;-82
2021/12/09 08:14:22;;;;;;;6.57;4.00;;;5.60;97.20;;;;;;1715652;28;20281;-81
2021/12/09 08:15:15;;;;;;;6.97;3.95;;;5.60;97.20;;;;;;1712740;28;20450;-82
2021/12/09 08:16:07;;;;;;;5.68;4.28;;;5.60;97.20;;;;;;1716495;28;20196;-82
2021/12/09 08:17:11;;;;;;;9.00;4.65;;;5.60;97.20;;;;;;1716728;28;20948;-81
2021/12/09 08:18:25;;;;;;;4.97;3.78;;;5.60;97.20;;;;;;1714805;28;20194;-81
2021/12/09 08:19:16;;;;;;;5.25;3.97;;;5.60;97.20;;;;;;1716411;28;20198;-81
2021/12/09 08:20:12;;;;;;;5.22;3.78;;;5.60;97.20;;;;;;1716986;28;20229;-81
2021/12/09 08:21:04;;;;;;;5.25;3.90;;;5.60;97.20;;;;;;1716811;28;20206;-81
2021/12/09 08:21:56;;;;;;;6.70;3.53;;;5.60;97.20;;;;;;1715508;28;20205;-82
2021/12/09 08:22:47;;;;;;;7.78;4.20;;;5.60;97.20;;;;;;1710459;28;20206;-81
2021/12/09 08:23:39;;;;;;;8.93;4.57;;;5.60;97.20;;;;;;1710452;28;20254;-82
2021/12/09 08:24:30;;;;;;;9.35;4.40;;;5.70;97.20;;;;;;1712107;28;20230;-81
2021/12/09 08:25:23;;;;;;;5.30;3.43;;;5.70;97.20;;;;;;1716166;28;20245;-81
2021/12/09 08:26:14;;;;;;;6.95;3.95;;;5.70;97.20;;;;;;1715787;28;20213;-82
2021/12/09 08:27:06;;;;;;;7.07;3.80;;;5.70;97.20;;;;;;1716211;28;20197;-81
2021/12/09 08:27:57;;;;;;;5.30;3.22;;;5.70;97.20;;;;;;1716104;28;20445;-81
2021/12/09 08:28:48;;;;;;;7.43;3.50;;;5.80;97.20;;;;;;1715951;28;20209;-81
2021/12/09 08:29:39;;;;;;;4.72;3.55;;;5.80;97.20;;;;;;1715678;28;20205;-81
2021/12/09 08:30:31;;;;;;;7.90;4.17;;;5.80;97.20;;;;;;1716631;28;20204;-81
2021/12/09 08:31:22;;;;;;;4.97;3.70;;;5.80;97.20;;;;;;1715378;28;20220;-81
2021/12/09 08:32:14;;;;;;;6.10;4.23;;;5.80;97.20;;;;;;1715595;28;20205;-81
2021/12/09 08:33:06;;;;;;;5.78;4.15;;;5.80;97.20;;;;;;1714482;28;20441;-82
2021/12/09 08:33:57;;;;;;;7.47;4.70;;;5.80;97.20;;;;;;1711085;28;20683;-81
2021/12/09 08:34:48;;;;;;;9.60;4.00;;;5.70;97.20;;;;;;1716521;28;20213;-82
2021/12/09 08:35:41;;;;;;;5.20;4.03;;;5.80;97.20;;;;;;1716595;28;20657;-81
2021/12/09 08:36:33;;;;;;;9.30;3.97;;;5.80;97.20;;;;;;1716567;28;20208;-81
2021/12/09 08:37:24;;;;;;;8.57;4.25;;;5.80;97.20;;;;;;1716657;28;20210;-82
2021/12/09 08:38:16;;;;;;;6.00;4.05;;;5.80;97.20;;;;;;1716277;28;20213;-81
2021/12/09 08:39:07;;;;;;;7.15;3.25;;;5.80;97.20;;;;;;1716733;28;20216;-81
2021/12/09 08:39:58;;;;;;;5.60;5.00;;;5.80;97.20;;;;;;1716150;28;20209;-81
2021/12/09 08:40:51;;;;;;;8.05;5.15;;;5.90;97.20;;;;;;1715421;28;20321;-82
2021/12/09 08:41:43;;;;;;;6.75;3.95;;;5.90;97.20;;;;;;1716177;28;20206;-82
2021/12/09 08:42:36;;;;;;;7.93;4.80;;;5.90;97.20;;;;;;1716712;28;20202;-82
2021/12/09 08:43:27;;;;;;;10.25;4.90;;;5.90;97.20;;;;;;1717132;28;20206;-81
2021/12/09 08:44:19;;;;;;;7.10;5.43;;;5.80;97.20;;;;;;1716391;28;20273;-81
2021/12/09 08:45:11;;;;;;;6.95;4.45;;;5.80;97.20;;;;;;1716719;28;20202;-81
2021/12/09 08:46:03;;;;;;;6.63;4.93;;;5.80;97.20;;;;;;1717118;28;20206;-81
2021/12/09 08:46:54;;;;;;;6.25;4.20;;;5.80;97.20;;;;;;1716691;28;20209;-81
2021/12/09 08:47:47;;;;;;;8.13;5.10;;;5.80;97.20;;;;;;1717045;28;20225;-82
2021/12/09 08:48:37;;;;;;;6.22;4.15;;;5.80;97.20;;;;;;1717406;28;20205;-81
2021/12/09 08:49:29;;;;;;;6.43;4.70;;;5.80;97.20;;;;;;1717642;28;20269;-81
2021/12/09 08:50:23;;;;;;;9.00;5.07;;;5.80;97.20;;;;;;1717305;28;20216;-81
2021/12/09 08:51:17;;;;;;;5.85;4.35;;;5.80;97.20;;;;;;1718466;28;20237;-81
2021/12/09 08:52:08;;;;;;;7.22;4.80;;;5.80;97.20;;;;;;1718368;28;20217;-81
2021/12/09 08:53:01;;;;;;;7.47;4.70;;;5.80;97.20;;;;;;1718447;28;20261;-81
2021/12/09 08:53:53;;;;;;;7.95;5.05;;;5.80;97.20;;;;;;1718383;28;20448;-82
2021/12/09 08:54:45;;;;;;;9.80;4.80;;;5.80;97.20;;;;;;1717900;28;20210;-81
2021/12/09 08:55:36;;;;;;;9.15;4.82;;;5.80;97.20;;;;;;1718395;28;20665;-81
2021/12/09 08:56:28;;;;;;;7.85;4.90;;;5.70;97.20;;;;;;1718172;28;20197;-81
2021/12/09 08:57:22;;;;;;;8.82;4.80;;;5.70;97.20;;;;;;1718271;28;20205;-81
2021/12/09 08:58:15;;;;;;;5.93;3.90;;;5.70;97.20;;;;;;1724125;28;20194;-81
2021/12/09 08:59:07;;;;;;;7.50;4.50;;;5.70;97.20;;;;;;1724763;28;20209;-81
2021/12/09 08:59:59;;;;;;;5.65;4.50;;;5.70;97.20;;;;;;1724595;28;20719;-81
2021/12/09 09:00:53;;;;;;;5.70;4.10;;;5.70;97.20;;;;;;1724734;28;20236;-81
2021/12/09 09:01:44;;;;;;;7.50;4.32;;;5.70;97.20;;;;;;1724575;28;20687;-81
2021/12/09 09:02:36;;;;;;;7.03;4.60;;;5.60;97.20;;;;;;1725091;28;20200;-82
2021/12/09 09:03:27;;;;;;;10.68;4.78;;;5.60;97.20;;;;;;1724473;28;20444;-82
2021/12/09 09:04:19;;;;;;;5.65;4.68;;;5.60;97.20;;;;;;1724686;28;20284;-81
2021/12/09 09:05:13;;;;;;;7.15;5.63;;;5.70;97.20;;;;;;1724807;28;20216;-81
2021/12/09 09:06:05;;;;;;;10.05;5.10;;;5.70;97.20;;;;;;1717111;28;20209;-82
2021/12/09 09:06:59;;;;;;;6.25;4.35;;;5.70;97.20;;;;;;1716936;28;20669;-81
2021/12/09 09:07:52;;;;;;;7.15;4.85;;;5.70;97.20;;;;;;1717534;28;20725;-81
2021/12/09 09:08:43;;;;;;;5.38;4.50;;;5.70;97.20;;;;;;1715924;28;20210;-81
2021/12/09 09:09:36;;;;;;;7.47;3.88;;;5.70;97.20;;;;;;1715844;28;20202;-81
2021/12/09 09:10:30;;;;;;;7.00;4.65;;;5.70;97.20;;;;;;1715901;28;20629;-82
2021/12/09 09:11:21;;;;;;;8.20;4.07;;;5.70;97.20;;;;;;1716327;28;20579;-81
2021/12/09 09:12:14;;;;;;;9.50;5.37;;;5.70;97.20;;;;;;1723026;28;20201;-82
2021/12/09 09:13:05;;;;;;;5.85;4.10;;;5.70;97.20;;;;;;1722856;28;20201;-82
2021/12/09 09:13:58;;;;;;;5.30;4.80;;;5.70;97.20;;;;;;1723188;28;20204;-81
2021/12/09 09:14:48;;;;;;;5.63;4.40;;;5.70;97.20;;;;;;1723066;28;20448;-81
2021/12/09 09:15:41;;;;;;;6.20;4.80;;;5.70;97.20;;;;;;1723444;28;20189;-82
2021/12/09 09:16:32;;;;;;;7.22;4.32;;;5.70;97.20;;;;;;1723183;28;20444;-82
2021/12/09 09:17:24;;;;;;;9.23;4.73;;;5.80;97.20;;;;;;1723717;28;20232;-82
2021/12/09 09:18:16;;;;;;;7.15;4.40;;;5.70;97.20;;;;;;1723631;28;20780;-81
2021/12/09 09:19:07;;;;;;;7.43;5.00;;;5.80;97.20;;;;;;1723246;28;20197;-81
2021/12/09 09:19:58;;;;;;;6.70;4.80;;;5.80;97.20;;;;;;1724781;28;20589;-81
2021/12/09 09:20:51;;;;;;;5.40;4.90;;;5.80;97.20;;;;;;1721319;28;20626;-81
2021/12/09 09:21:42;;;;;;;13.90;4.70;;;5.80;97.20;;;;;;1717941;28;20441;-81
2021/12/09 09:22:35;;;;;;;6.78;4.70;;;5.80;97.20;;;;;;1717755;28;20264;-81
2021/12/09 09:23:26;;;;;;;7.90;4.80;;;5.80;97.20;;;;;;1717323;28;20208;-81
2021/12/09 09:24:18;;;;;;;7.20;4.33;;;5.80;97.20;;;;;;1718401;28;20569;-81
2021/12/09 09:25:14;;;;;;;7.75;4.88;;;5.80;97.20;;;;;;1718709;28;20448;-81
2021/12/09 09:26:06;;;;;;;8.32;5.15;;;5.80;97.20;;;;;;1718526;28;20209;-81
2021/12/09 09:26:57;;;;;;;10.35;4.90;;;5.80;97.20;;;;;;1718385;28;20828;-81
2021/12/09 09:27:49;;;;;;;8.07;4.80;;;5.80;97.20;;;;;;1718895;28;20571;-81
2021/12/09 09:28:40;;;;;;;7.10;4.90;;;5.80;97.20;;;;;;1719026;28;20209;-81
2021/12/09 09:29:34;;;;;;;13.53;4.63;;;5.80;97.20;;;;;;1719313;28;20257;-81
2021/12/09 09:30:33;;;;;;;5.47;4.35;;;5.80;97.20;;;;;;1719496;28;20456;-81
2021/12/09 09:31:27;;;;;;;6.07;4.40;;;5.80;97.20;;;;;;1718961;28;20210;-81
2021/12/09 09:32:18;;;;;;;5.93;4.38;;;5.80;97.20;;;;;;1719126;28;20194;-81
2021/12/09 09:33:14;;;;;;;5.30;4.80;;;5.80;97.20;;;;;;1719388;28;20198;-81
2021/12/09 09:34:05;;;;;;;5.70;3.95;;;5.90;97.20;;;;;;1719278;28;20217;-81
2021/12/09 09:34:56;;;;;;;7.00;4.23;;;5.90;97.20;;;;;;1718697;28;20289;-81
2021/12/09 09:35:49;;;;;;;8.20;5.57;;;5.90;97.20;;;;;;1718841;28;20574;-81
2021/12/09 09:36:44;;;;;;;6.82;4.43;;;5.90;97.20;;;;;;1719293;28;20584;-81
2021/12/09 09:37:37;;;;;;;6.20;4.90;;;5.90;97.20;;;;;;1719110;28;20197;-81
2021/12/09 09:38:28;;;;;;;8.38;4.95;;;5.90;97.20;;;;;;1718851;28;20229;-81
2021/12/09 09:39:22;;;;;;;5.85;4.55;;;5.90;97.20;;;;;;1715956;28;20201;-81
2021/12/09 09:40:16;;;;;;;6.93;4.70;;;5.90;97.20;;;;;;1712054;29;20210;-81
2021/12/09 09:41:14;;;;;;;7.05;4.63;;;5.90;97.20;;;;;;1712251;29;20202;-81
2021/12/09 09:42:30;;;;;;;6.20;4.75;;;5.90;97.20;;;;;;1712150;29;20210;-81
2021/12/09 09:43:41;;;;;;;4.85;4.45;;;5.90;97.20;;;;;;1712072;29;20194;-81
2021/12/09 09:44:45;;;;;;;6.15;5.03;;;5.90;97.20;;;;;;1712162;29;20582;-82
2021/12/09 09:45:36;;;;;;;6.03;4.57;;;5.90;97.20;;;;;;1713066;28;20988;-81
2021/12/09 09:46:31;;;;;;;6.88;5.05;;;5.80;97.20;;;;;;1712618;29;20218;-81
2021/12/09 09:47:23;;;;;;;8.48;7.35;;;5.80;97.20;;;;;;1712467;29;20214;-81
2021/12/09 09:48:16;;;;;;;6.55;5.95;;;5.80;97.20;;;;;;1712228;29;20207;-81
2021/12/09 09:49:08;;;;;;;7.35;5.40;;;5.90;97.20;;;;;;1712118;29;20218;-81
2021/12/09 09:49:59;;;;;;;8.60;5.75;;;5.90;97.20;;;;;;1712311;29;20202;-81
2021/12/09 09:50:50;;;;;;;6.75;5.20;;;5.90;97.20;;;;;;1711922;29;20227;-81
2021/12/09 09:51:43;;;;;;;6.63;5.50;;;5.90;97.20;;;;;;1712255;29;20229;-81
2021/12/09 09:52:35;;;;;;;7.00;5.30;;;5.90;97.20;;;;;;1711920;29;20450;-81
2021/12/09 09:53:27;;;;;;;7.35;5.78;;;5.90;97.20;;;;;;1717383;28;20277;-81
2021/12/09 09:54:18;;;;;;;6.25;4.20;;;5.90;97.20;;;;;;1718951;28;20213;-81
2021/12/09 09:55:14;;;;;;;8.00;5.30;;;5.90;97.20;;;;;;1719223;28;20269;-81
2021/12/09 09:56:13;;;;;;;9.93;5.38;;;5.90;97.20;;;;;;1718739;28;20525;-81
2021/12/09 09:57:05;;;;;;;7.47;4.95;;;5.90;97.20;;;;;;1719097;28;20213;-81
2021/12/09 09:57:57;;;;;;;5.70;4.75;;;5.90;97.20;;;;;;1719247;28;20286;-81
2021/12/09 09:58:50;;;;;;;8.70;5.13;;;5.90;97.20;;;;;;1713979;28;20234;-81
2021/12/09 09:59:42;;;;;;;5.88;4.72;;;5.90;97.20;;;;;;1712549;28;20302;-81
2021/12/09 10:00:33;;;;;;;5.35;4.80;;;5.90;97.20;;;;;;1711983;29;20766;-81
2021/12/09 10:01:26;;;;;;;9.83;5.83;;;5.90;97.20;;;;;;1712464;28;20728;-81
2021/12/09 10:02:17;;;;;;;5.78;5.28;;;5.90;97.20;;;;;;1712490;29;20207;-81
2021/12/09 10:03:16;;;;;;;8.10;4.95;;;5.90;97.20;;;;;;1714953;28;20199;-81
2021/12/09 10:04:10;;;;;;;5.70;5.03;;;5.90;97.20;;;;;;1718464;28;20256;-81
2021/12/09 10:05:04;;;;;;;9.55;5.70;;;5.90;97.20;;;;;;1719402;28;20213;-81
2021/12/09 10:05:57;;;;;;;7.75;5.32;;;5.90;97.20;;;;;;1718626;28;20276;-81
2021/12/09 10:06:49;;;;;;;6.90;5.60;;;5.90;97.20;;;;;;1719515;28;20205;-81
2021/12/09 10:07:41;;;;;;;6.65;5.35;;;5.80;97.20;;;;;;1718861;28;20217;-81
2021/12/09 10:08:33;;;;;;;7.13;5.78;;;5.80;97.20;;;;;;1718715;28;20210;-81
2021/12/09 10:09:24;;;;;;;6.20;5.45;;;5.80;97.20;;;;;;1719180;28;20214;-81
2021/12/09 10:10:16;;;;;;;6.40;5.10;;;5.90;97.20;;;;;;1718454;28;20214;-81
2021/12/09 10:11:08;;;;;;;5.90;4.90;;;5.90;97.20;;;;;;1718826;28;20456;-81
2021/12/09 10:12:00;;;;;;;8.52;5.47;;;5.90;97.20;;;;;;1712387;28;20201;-81
2021/12/09 10:12:59;;;;;;;8.30;4.88;;;5.90;97.20;;;;;;1712132;28;20215;-81
2021/12/09 10:13:51;;;;;;;6.18;5.05;;;5.90;97.20;;;;;;1711384;29;20693;-81
2021/12/09 10:14:46;;;;;;;7.63;4.88;;;5.90;97.20;;;;;;1712057;29;20218;-81
2021/12/09 10:15:45;;;;;;;8.45;4.90;;;5.90;97.20;;;;;;1711912;28;20218;-81
2021/12/09 10:16:38;;;;;;;9.35;4.55;;;5.90;97.20;;;;;;1712378;29;20207;-81
2021/12/09 10:17:30;;;;;;;6.32;4.25;;;5.90;97.20;;;;;;1712252;29;20226;-81
2021/12/09 10:18:33;;;;;;;6.25;4.80;;;5.90;97.20;;;;;;1712737;29;20213;-81
2021/12/09 10:19:24;;;;;;;5.38;4.60;;;5.90;97.20;;;;;;1712316;29;20210;-81
2021/12/09 10:20:15;;;;;;;5.75;4.60;;;5.90;97.20;;;;;;1712468;29;20253;-81
2021/12/09 10:21:09;;;;;;;8.30;4.37;;;5.90;97.20;;;;;;1712134;29;20221;-81
2021/12/09 10:22:10;;;;;;;6.88;4.15;;;5.90;97.20;;;;;;1718450;28;20198;-81
2021/12/09 10:23:23;;;;;;;6.50;4.60;;;6.00;97.20;;;;;;1718591;28;20209;-81
2021/12/09 10:24:16;;;;;;;4.45;3.88;;;5.90;97.20;;;;;;1719153;28;20217;-81
2021/12/09 10:25:18;;;;;;;5.47;4.03;;;5.90;97.20;;;;;;1718298;28;20248;-81
2021/12/09 10:26:17;;;;;;;6.13;4.40;;;5.90;97.20;;;;;;1718183;28;20252;-81
2021/12/09 10:27:17;;;;;;;4.85;4.35;;;5.90;97.20;;;;;;1718528;28;20209;-81
2021/12/09 10:28:11;;;;;;;6.57;4.30;;;5.90;97.20;;;;;;1718861;28;20226;-82
2021/12/09 10:29:07;;;;;;;4.38;3.97;;;5.90;97.20;;;;;;1714069;28;20540;-82
2021/12/09 10:30:13;;;;;;;5.45;4.00;;;6.00;97.20;;;;;;1718301;28;20202;-81
2021/12/09 10:31:09;;;;;;;4.72;4.00;;;6.00;97.20;;;;;;1712782;28;20214;-81
2021/12/09 10:32:04;;;;;;;4.55;4.10;;;6.00;97.20;;;;;;1712043;28;20199;-81
2021/12/09 10:33:01;;;;;;;5.18;4.40;;;6.00;97.20;;;;;;1712733;28;20206;-81
2021/12/09 10:34:02;;;;;;;7.90;4.70;;;6.00;97.20;;;;;;1711865;29;20198;-81
2021/12/09 10:34:53;;;;;;;5.20;4.38;;;6.00;97.20;;;;;;1712170;28;20211;-81
2021/12/09 10:35:44;;;;;;;4.35;3.95;;;6.00;97.20;;;;;;1712241;29;20255;-81
2021/12/09 10:36:40;;;;;;;8.50;4.40;;;6.10;97.20;;;;;;1712064;29;20210;-82
2021/12/09 10:37:34;;;;;;;5.97;4.72;;;6.10;97.20;;;;;;1712548;29;20382;-81
2021/12/09 10:38:28;;;;;;;6.93;4.15;;;6.10;97.20;;;;;;1712433;29;20219;-81